^^
Station Historical Data
Daily Summary for November 7, 2017 Units:  Both    English   Metric
« Previous Day
Next Day »
Daily Weekly Monthly Yearly Custom
  High: Low: Average:
Temperature: TemperatureF °F /  -17.8 °C 67.8 °F /  19.9 °C 77.5 °F /  25.3 °C
Dew Point: DewpointF °F /  -17.8 °C 39.0 °F /  3.9 °C 44.1 °F /  6.7 °C
Humidity: Humidity% 19% 32%
Wind Speed: WindSpeedMPHmph /  0km/h - 2.3mph /  3.7km/h
Wind Gust: WindSpeedGustMPHmph /  0km/h - -
Wind- - SSE
Pressure: PressureIn in /  0 hPa 29.56 in /  1000.9 hPa -
Precipitation: 0.00 in /  0 mm    
Historical Graphs
 
 
Tabular Data for November 7, 2017
Time Temperature Dew Point Pressure Wind Wind Speed Wind Gust Humidity Rainfall Rate (Hourly) solar Conditions
TemperatureF °F /  -17.8 °C DewpointF °F /  -17.8 °C PressureInin /  0hPa Calm     Humidity% HourlyPrecipInin /  0mm SolarRadiationWatts/m^2 W/m2 Conditions
00:04 70.3 °F /  21.3 °C 49.1 °F /  9.5 °C 29.72in /  1006.3hPa ENE 0.9mph /  1.4km/h 5.0mph /  8km/h 47% 0.00in /  0mm 0.0 W/m2
00:09 70.3 °F /  21.3 °C 49.1 °F /  9.5 °C 29.72in /  1006.3hPa East 4.9mph /  7.9km/h 6.0mph /  9.7km/h 47% 0.00in /  0mm 0.0 W/m2
00:14 70.3 °F /  21.3 °C 49.1 °F /  9.5 °C 29.72in /  1006.3hPa NE 2.9mph /  4.7km/h 5.0mph /  8km/h 47% 0.00in /  0mm 0.0 W/m2
00:19 70.3 °F /  21.3 °C 49.1 °F /  9.5 °C 29.72in /  1006.3hPa SE 4.0mph /  6.4km/h 6.0mph /  9.7km/h 47% 0.00in /  0mm 0.0 W/m2
00:25 70.5 °F /  21.4 °C 49.3 °F /  9.6 °C 29.72in /  1006.3hPa ENE 2.0mph /  3.2km/h 8.0mph /  12.9km/h 47% 0.00in /  0mm 0.0 W/m2
00:30 70.5 °F /  21.4 °C 48.7 °F /  9.3 °C 29.72in /  1006.3hPa NE 2.9mph /  4.7km/h 9.0mph /  14.5km/h 46% 0.00in /  0mm 0.0 W/m2
00:35 70.5 °F /  21.4 °C 49.3 °F /  9.6 °C 29.72in /  1006.3hPa ENE 2.0mph /  3.2km/h 5.0mph /  8km/h 47% 0.00in /  0mm 0.0 W/m2
00:40 70.5 °F /  21.4 °C 49.3 °F /  9.6 °C 29.72in /  1006.3hPa East 4.0mph /  6.4km/h 5.0mph /  8km/h 47% 0.00in /  0mm 0.0 W/m2
00:47 70.5 °F /  21.4 °C 49.3 °F /  9.6 °C 29.72in /  1006.3hPa Calm   4.0mph /  6.4km/h 47% 0.00in /  0mm 0.0 W/m2
00:52 70.5 °F /  21.4 °C 49.3 °F /  9.6 °C 29.71in /  1006hPa East 2.9mph /  4.7km/h 5.0mph /  8km/h 47% 0.00in /  0mm 0.0 W/m2
00:57 70.5 °F /  21.4 °C 48.7 °F /  9.3 °C 29.71in /  1006hPa ESE 0.9mph /  1.4km/h 3.0mph /  4.8km/h 46% 0.00in /  0mm 0.0 W/m2
01:02 70.5 °F /  21.4 °C 48.7 °F /  9.3 °C 29.71in /  1006hPa SE 4.9mph /  7.9km/h 8.0mph /  12.9km/h 46% 0.00in /  0mm 0.0 W/m2
01:07 70.5 °F /  21.4 °C 48.7 °F /  9.3 °C 29.71in /  1006hPa ENE 0.9mph /  1.4km/h 6.0mph /  9.7km/h 46% 0.00in /  0mm 0.0 W/m2
01:12 70.5 °F /  21.4 °C 48.2 °F /  9 °C 29.70in /  1005.6hPa ENE 2.0mph /  3.2km/h 7.0mph /  11.3km/h 45% 0.00in /  0mm 0.0 W/m2
01:18 70.7 °F /  21.5 °C 48.4 °F /  9.1 °C 29.70in /  1005.6hPa Calm   5.0mph /  8km/h 45% 0.00in /  0mm 0.0 W/m2
01:23 70.7 °F /  21.5 °C 48.4 °F /  9.1 °C 29.70in /  1005.6hPa ESE 4.0mph /  6.4km/h 6.0mph /  9.7km/h 45% 0.00in /  0mm 0.0 W/m2
01:28 70.9 °F /  21.6 °C 48.6 °F /  9.2 °C 29.70in /  1005.6hPa ESE 0.9mph /  1.4km/h 5.0mph /  8km/h 45% 0.00in /  0mm 0.0 W/m2
01:33 70.9 °F /  21.6 °C 47.8 °F /  8.8 °C 29.69in /  1005.3hPa Calm   3.0mph /  4.8km/h 44% 0.00in /  0mm 0.0 W/m2
01:39 70.9 °F /  21.6 °C 49.1 °F /  9.5 °C 29.69in /  1005.3hPa Calm   6.0mph /  9.7km/h 46% 0.00in /  0mm 0.0 W/m2
01:44 71.1 °F /  21.7 °C 48.0 °F /  8.9 °C 29.69in /  1005.3hPa ESE 2.0mph /  3.2km/h 4.0mph /  6.4km/h 44% 0.00in /  0mm 0.0 W/m2
01:49 71.1 °F /  21.7 °C 47.5 °F /  8.6 °C 29.69in /  1005.3hPa Calm   9.0mph /  14.5km/h 43% 0.00in /  0mm 0.0 W/m2
01:54 71.1 °F /  21.7 °C 46.2 °F /  7.9 °C 29.68in /  1005hPa ENE 2.0mph /  3.2km/h 8.0mph /  12.9km/h 41% 0.00in /  0mm 0.0 W/m2
01:59 71.2 °F /  21.8 °C 46.9 °F /  8.3 °C 29.68in /  1005hPa ENE 2.0mph /  3.2km/h 5.0mph /  8km/h 42% 0.00in /  0mm 0.0 W/m2
02:04 71.4 °F /  21.9 °C 48.4 °F /  9.1 °C 29.68in /  1005hPa ESE 2.9mph /  4.7km/h 5.0mph /  8km/h 44% 0.00in /  0mm 0.0 W/m2
02:09 71.4 °F /  21.9 °C 51.3 °F /  10.7 °C 29.68in /  1005hPa NE 0.9mph /  1.4km/h 4.0mph /  6.4km/h 49% 0.00in /  0mm 0.0 W/m2
02:14 71.1 °F /  21.7 °C 50.4 °F /  10.2 °C 29.67in /  1004.6hPa ENE 4.9mph /  7.9km/h 8.0mph /  12.9km/h 48% 0.00in /  0mm 0.0 W/m2
02:19 70.5 °F /  21.4 °C 49.8 °F /  9.9 °C 29.67in /  1004.6hPa ENE 4.9mph /  7.9km/h 7.0mph /  11.3km/h 48% 0.00in /  0mm 0.0 W/m2
02:25 70.3 °F /  21.3 °C 49.6 °F /  9.8 °C 29.67in /  1004.6hPa Calm   3.0mph /  4.8km/h 48% 0.00in /  0mm 0.0 W/m2
02:31 70.2 °F /  21.2 °C 48.4 °F /  9.1 °C 29.67in /  1004.6hPa East 4.0mph /  6.4km/h 6.0mph /  9.7km/h 46% 0.00in /  0mm 0.0 W/m2
02:36 70.3 °F /  21.3 °C 46.8 °F /  8.2 °C 29.66in /  1004.3hPa SE 2.9mph /  4.7km/h 10.0mph /  16.1km/h 43% 0.00in /  0mm 0.0 W/m2
02:41 70.5 °F /  21.4 °C 46.9 °F /  8.3 °C 29.66in /  1004.3hPa ENE 4.0mph /  6.4km/h 7.0mph /  11.3km/h 43% 0.00in /  0mm 0.0 W/m2
02:46 70.7 °F /  21.5 °C 46.4 °F /  8 °C 29.66in /  1004.3hPa SE 2.9mph /  4.7km/h 4.0mph /  6.4km/h 42% 0.00in /  0mm 0.0 W/m2
02:51 70.9 °F /  21.6 °C 46.6 °F /  8.1 °C 29.66in /  1004.3hPa ESE 4.9mph /  7.9km/h 8.0mph /  12.9km/h 42% 0.00in /  0mm 0.0 W/m2
02:56 71.2 °F /  21.8 °C 46.4 °F /  8 °C 29.66in /  1004.3hPa SE 8.1mph /  13km/h 10.0mph /  16.1km/h 41% 0.00in /  0mm 0.0 W/m2
03:02 71.4 °F /  21.9 °C 45.9 °F /  7.7 °C 29.65in /  1003.9hPa ESE 2.9mph /  4.7km/h 11.0mph /  17.7km/h 40% 0.00in /  0mm 0.0 W/m2
03:07 71.8 °F /  22.1 °C 45.5 °F /  7.5 °C 29.65in /  1003.9hPa ESE 6.0mph /  9.7km/h 9.0mph /  14.5km/h 39% 0.00in /  0mm 0.0 W/m2
03:12 72.0 °F /  22.2 °C 45.7 °F /  7.6 °C 29.65in /  1003.9hPa SSE 6.0mph /  9.7km/h 9.0mph /  14.5km/h 39% 0.00in /  0mm 0.0 W/m2
03:17 72.1 °F /  22.3 °C 45.1 °F /  7.3 °C 29.65in /  1003.9hPa SE 4.0mph /  6.4km/h 11.0mph /  17.7km/h 38% 0.00in /  0mm 0.0 W/m2
03:22 72.3 °F /  22.4 °C 45.3 °F /  7.4 °C 29.65in /  1003.9hPa ESE 2.0mph /  3.2km/h 5.0mph /  8km/h 38% 0.00in /  0mm 0.0 W/m2
03:28 72.5 °F /  22.5 °C 44.8 °F /  7.1 °C 29.64in /  1003.6hPa ESE 2.0mph /  3.2km/h 8.0mph /  12.9km/h 37% 0.00in /  0mm 0.0 W/m2
03:33 72.7 °F /  22.6 °C 45.0 °F /  7.2 °C 29.64in /  1003.6hPa ESE 4.0mph /  6.4km/h 10.0mph /  16.1km/h 37% 0.00in /  0mm 0.0 W/m2
03:38 72.7 °F /  22.6 °C 44.2 °F /  6.8 °C 29.63in /  1003.3hPa ESE 4.9mph /  7.9km/h 7.0mph /  11.3km/h 36% 0.00in /  0mm 0.0 W/m2
03:44 73.0 °F /  22.8 °C 43.7 °F /  6.5 °C 29.63in /  1003.3hPa SE 2.9mph /  4.7km/h 8.0mph /  12.9km/h 35% 0.00in /  0mm 0.0 W/m2
03:49 73.2 °F /  22.9 °C 43.9 °F /  6.6 °C 29.63in /  1003.3hPa SSE 0.9mph /  1.4km/h 6.0mph /  9.7km/h 35% 0.00in /  0mm 0.0 W/m2
03:54 73.2 °F /  22.9 °C 43.9 °F /  6.6 °C 29.63in /  1003.3hPa SSE 2.9mph /  4.7km/h 5.0mph /  8km/h 35% 0.00in /  0mm 0.0 W/m2
03:59 73.2 °F /  22.9 °C 43.9 °F /  6.6 °C 29.63in /  1003.3hPa SSE 2.9mph /  4.7km/h 7.0mph /  11.3km/h 35% 0.00in /  0mm 0.0 W/m2
04:04 73.2 °F /  22.9 °C 44.6 °F /  7 °C 29.62in /  1002.9hPa SSE 4.9mph /  7.9km/h 7.0mph /  11.3km/h 36% 0.00in /  0mm 0.0 W/m2
04:10 73.0 °F /  22.8 °C 44.4 °F /  6.9 °C 29.62in /  1002.9hPa SE 2.9mph /  4.7km/h 6.0mph /  9.7km/h 36% 0.00in /  0mm 0.0 W/m2
04:15 73.0 °F /  22.8 °C 43.7 °F /  6.5 °C 29.62in /  1002.9hPa SE 2.9mph /  4.7km/h 5.0mph /  8km/h 35% 0.00in /  0mm 0.0 W/m2
04:20 73.0 °F /  22.8 °C 43.7 °F /  6.5 °C 29.62in /  1002.9hPa ESE 4.9mph /  7.9km/h 6.0mph /  9.7km/h 35% 0.00in /  0mm 0.0 W/m2
04:26 73.2 °F /  22.9 °C 43.9 °F /  6.6 °C 29.62in /  1002.9hPa SE 0.9mph /  1.4km/h 4.0mph /  6.4km/h 35% 0.00in /  0mm 0.0 W/m2
04:31 73.2 °F /  22.9 °C 44.6 °F /  7 °C 29.62in /  1002.9hPa Calm   3.0mph /  4.8km/h 36% 0.00in /  0mm 0.0 W/m2
04:36 73.0 °F /  22.8 °C 44.4 °F /  6.9 °C 29.62in /  1002.9hPa Calm   3.0mph /  4.8km/h 36% 0.00in /  0mm 0.0 W/m2
04:42 72.9 °F /  22.7 °C 44.4 °F /  6.9 °C 29.62in /  1002.9hPa SE 0.9mph /  1.4km/h 1.0mph /  1.6km/h 36% 0.00in /  0mm 0.0 W/m2
04:47 72.9 °F /  22.7 °C 44.4 °F /  6.9 °C 29.62in /  1002.9hPa SSE 2.9mph /  4.7km/h 4.0mph /  6.4km/h 36% 0.00in /  0mm 0.0 W/m2
04:52 72.7 °F /  22.6 °C 44.2 °F /  6.8 °C 29.62in /  1002.9hPa SE 2.0mph /  3.2km/h 2.0mph /  3.2km/h 36% 0.00in /  0mm 0.0 W/m2
04:58 72.7 °F /  22.6 °C 44.2 °F /  6.8 °C 29.62in /  1002.9hPa Calm   1.0mph /  1.6km/h 36% 0.00in /  0mm 0.0 W/m2
05:03 72.3 °F /  22.4 °C 44.6 °F /  7 °C 29.62in /  1002.9hPa South 0.9mph /  1.4km/h 3.0mph /  4.8km/h 37% 0.00in /  0mm 0.0 W/m2
05:08 72.3 °F /  22.4 °C 44.6 °F /  7 °C 29.62in /  1002.9hPa SW 0.9mph /  1.4km/h 5.0mph /  8km/h 37% 0.00in /  0mm 0.0 W/m2
05:15 72.1 °F /  22.3 °C 44.4 °F /  6.9 °C 29.62in /  1002.9hPa South 2.0mph /  3.2km/h 5.0mph /  8km/h 37% 0.00in /  0mm 0.0 W/m2
05:20 72.1 °F /  22.3 °C 44.4 °F /  6.9 °C 29.62in /  1002.9hPa SE 0.9mph /  1.4km/h 2.0mph /  3.2km/h 37% 0.00in /  0mm 0.0 W/m2
05:25 72.0 °F /  22.2 °C 45.0 °F /  7.2 °C 29.62in /  1002.9hPa SSE 4.0mph /  6.4km/h 4.0mph /  6.4km/h 38% 0.00in /  0mm 0.0 W/m2
05:27 72.0 °F /  22.2 °C 45.0 °F /  7.2 °C 29.62in /  1002.9hPa Calm   5.0mph /  8km/h 38% 0.00in /  0mm 0.0 W/m2
05:31 72.0 °F /  22.2 °C 45.0 °F /  7.2 °C 29.62in /  1002.9hPa SSE 0.9mph /  1.4km/h 1.0mph /  1.6km/h 38% 0.00in /  0mm 0.0 W/m2
05:36 71.8 °F /  22.1 °C 44.8 °F /  7.1 °C 29.62in /  1002.9hPa SSW 0.9mph /  1.4km/h 5.0mph /  8km/h 38% 0.00in /  0mm 0.0 W/m2
05:41 71.8 °F /  22.1 °C 44.1 °F /  6.7 °C 29.63in /  1003.3hPa South 0.9mph /  1.4km/h 3.0mph /  4.8km/h 37% 0.00in /  0mm 0.0 W/m2
05:47 72.0 °F /  22.2 °C 44.2 °F /  6.8 °C 29.63in /  1003.3hPa Calm   2.0mph /  3.2km/h 37% 0.00in /  0mm 0.0 W/m2
05:53 72.0 °F /  22.2 °C 44.2 °F /  6.8 °C 29.63in /  1003.3hPa Calm   3.0mph /  4.8km/h 37% 0.00in /  0mm 0.0 W/m2
05:58 72.0 °F /  22.2 °C 44.2 °F /  6.8 °C 29.63in /  1003.3hPa Calm     37% 0.00in /  0mm 0.0 W/m2
06:03 72.1 °F /  22.3 °C 45.1 °F /  7.3 °C 29.63in /  1003.3hPa Calm   1.0mph /  1.6km/h 38% 0.00in /  0mm 0.0 W/m2
06:09 72.0 °F /  22.2 °C 45.0 °F /  7.2 °C 29.64in /  1003.6hPa Calm   3.0mph /  4.8km/h 38% 0.00in /  0mm 9.0 W/m2
06:14 72.0 °F /  22.2 °C 44.2 °F /  6.8 °C 29.64in /  1003.6hPa Calm   1.0mph /  1.6km/h 37% 0.00in /  0mm 23.0 W/m2
06:19 71.8 °F /  22.1 °C 44.8 °F /  7.1 °C 29.64in /  1003.6hPa Calm   1.0mph /  1.6km/h 38% 0.00in /  0mm 30.0 W/m2
06:25 71.8 °F /  22.1 °C 44.8 °F /  7.1 °C 29.64in /  1003.6hPa Calm     38% 0.00in /  0mm 37.0 W/m2
06:30 71.8 °F /  22.1 °C 45.5 °F /  7.5 °C 29.64in /  1003.6hPa NNE 2.0mph /  3.2km/h 3.0mph /  4.8km/h 39% 0.00in /  0mm 47.0 W/m2
06:35 71.8 °F /  22.1 °C 44.8 °F /  7.1 °C 29.64in /  1003.6hPa Calm   3.0mph /  4.8km/h 38% 0.00in /  0mm 51.0 W/m2
06:40 72.1 °F /  22.3 °C 44.4 °F /  6.9 °C 29.63in /  1003.3hPa Calm   2.0mph /  3.2km/h 37% 0.00in /  0mm 58.0 W/m2
06:45 72.5 °F /  22.5 °C 43.3 °F /  6.3 °C 29.63in /  1003.3hPa Calm   3.0mph /  4.8km/h 35% 0.00in /  0mm 62.0 W/m2
06:51 73.0 °F /  22.8 °C 43.7 °F /  6.5 °C 29.63in /  1003.3hPa Calm   4.0mph /  6.4km/h 35% 0.00in /  0mm 67.0 W/m2
06:56 73.6 °F /  23.1 °C 43.5 °F /  6.4 °C 29.63in /  1003.3hPa SE 2.9mph /  4.7km/h 7.0mph /  11.3km/h 34% 0.00in /  0mm 67.0 W/m2
07:01 73.9 °F /  23.3 °C 43.9 °F /  6.6 °C 29.63in /  1003.3hPa SSE 6.0mph /  9.7km/h 8.0mph /  12.9km/h 34% 0.00in /  0mm 69.0 W/m2
07:07 74.5 °F /  23.6 °C 45.0 °F /  7.2 °C 29.63in /  1003.3hPa SSE 6.0mph /  9.7km/h 7.0mph /  11.3km/h 35% 0.00in /  0mm 76.0 W/m2
07:12 74.7 °F /  23.7 °C 44.4 °F /  6.9 °C 29.62in /  1002.9hPa SSE 2.0mph /  3.2km/h 9.0mph /  14.5km/h 34% 0.00in /  0mm 81.0 W/m2
07:17 74.8 °F /  23.8 °C 43.9 °F /  6.6 °C 29.62in /  1002.9hPa SE 2.9mph /  4.7km/h 8.0mph /  12.9km/h 33% 0.00in /  0mm 84.0 W/m2
07:23 75.4 °F /  24.1 °C 44.2 °F /  6.8 °C 29.62in /  1002.9hPa ESE 2.9mph /  4.7km/h 8.0mph /  12.9km/h 33% 0.00in /  0mm 86.0 W/m2
07:33 75.9 °F /  24.4 °C 43.9 °F /  6.6 °C 29.62in /  1002.9hPa SSE 0.9mph /  1.4km/h 2.0mph /  3.2km/h 32% 0.00in /  0mm 109.0 W/m2
07:38 76.1 °F /  24.5 °C 44.1 °F /  6.7 °C 29.63in /  1003.3hPa Calm   1.0mph /  1.6km/h 32% 0.00in /  0mm 113.0 W/m2
07:43 76.3 °F /  24.6 °C 45.1 °F /  7.3 °C 29.63in /  1003.3hPa Calm     33% 0.00in /  0mm 144.0 W/m2
07:48 76.5 °F /  24.7 °C 44.4 °F /  6.9 °C 29.63in /  1003.3hPa Calm   2.0mph /  3.2km/h 32% 0.00in /  0mm 176.0 W/m2
07:53 76.6 °F /  24.8 °C 44.6 °F /  7 °C 29.63in /  1003.3hPa Calm     32% 0.00in /  0mm 72.0 W/m2
07:58 76.6 °F /  24.8 °C 45.3 °F /  7.4 °C 29.63in /  1003.3hPa Calm     33% 0.00in /  0mm 81.0 W/m2
08:04 76.8 °F /  24.9 °C 47.1 °F /  8.4 °C 29.62in /  1002.9hPa Calm     35% 0.00in /  0mm 220.0 W/m2
08:09 76.8 °F /  24.9 °C 43.0 °F /  6.1 °C 29.62in /  1002.9hPa East 0.9mph /  1.4km/h 1.0mph /  1.6km/h 30% 0.00in /  0mm 399.0 W/m2
08:14 77.5 °F /  25.3 °C 46.2 °F /  7.9 °C 29.62in /  1002.9hPa WNW 0.9mph /  1.4km/h 1.0mph /  1.6km/h 33% 0.00in /  0mm 476.0 W/m2
08:20 78.4 °F /  25.8 °C 44.4 °F /  6.9 °C 29.63in /  1003.3hPa Calm   3.0mph /  4.8km/h 30% 0.00in /  0mm 513.0 W/m2
08:25 79.5 °F /  26.4 °C 43.5 °F /  6.4 °C 29.63in /  1003.3hPa North 0.9mph /  1.4km/h 3.0mph /  4.8km/h 28% 0.00in /  0mm 359.0 W/m2
08:30 80.8 °F /  27.1 °C 44.6 °F /  7 °C 29.63in /  1003.3hPa NNW 0.9mph /  1.4km/h 3.0mph /  4.8km/h 28% 0.00in /  0mm 501.0 W/m2
08:36 81.3 °F /  27.4 °C 44.1 °F /  6.7 °C 29.63in /  1003.3hPa WSW 0.9mph /  1.4km/h 2.0mph /  3.2km/h 27% 0.00in /  0mm 563.0 W/m2
08:41 81.7 °F /  27.6 °C 43.5 °F /  6.4 °C 29.63in /  1003.3hPa Calm   2.0mph /  3.2km/h 26% 0.00in /  0mm 295.0 W/m2
08:46 81.9 °F /  27.7 °C 42.6 °F /  5.9 °C 29.63in /  1003.3hPa NNW 0.9mph /  1.4km/h 2.0mph /  3.2km/h 25% 0.00in /  0mm 244.0 W/m2
08:51 82.2 °F /  27.9 °C 43.0 °F /  6.1 °C 29.63in /  1003.3hPa North 0.9mph /  1.4km/h 2.0mph /  3.2km/h 25% 0.00in /  0mm 279.0 W/m2
08:56 82.6 °F /  28.1 °C 42.1 °F /  5.6 °C 29.63in /  1003.3hPa Calm   2.0mph /  3.2km/h 24% 0.00in /  0mm 369.0 W/m2
09:02 82.9 °F /  28.3 °C 41.4 °F /  5.2 °C 29.63in /  1003.3hPa Calm   1.0mph /  1.6km/h 23% 0.00in /  0mm 582.0 W/m2
09:07 83.3 °F /  28.5 °C 42.8 °F /  6 °C 29.63in /  1003.3hPa North 2.9mph /  4.7km/h 3.0mph /  4.8km/h 24% 0.00in /  0mm 373.0 W/m2
09:12 83.5 °F /  28.6 °C 41.7 °F /  5.4 °C 29.63in /  1003.3hPa Calm   3.0mph /  4.8km/h 23% 0.00in /  0mm 621.0 W/m2
09:18 84.4 °F /  29.1 °C 42.6 °F /  5.9 °C 29.63in /  1003.3hPa Calm   4.0mph /  6.4km/h 23% 0.00in /  0mm 875.0 W/m2
09:23 84.9 °F /  29.4 °C 43.0 °F /  6.1 °C 29.63in /  1003.3hPa Calm   3.0mph /  4.8km/h 23% 0.00in /  0mm 923.0 W/m2
09:28 85.8 °F /  29.9 °C 43.7 °F /  6.5 °C 29.63in /  1003.3hPa ENE 0.9mph /  1.4km/h 3.0mph /  4.8km/h 23% 0.00in /  0mm 960.0 W/m2
09:34 86.4 °F /  30.2 °C 43.0 °F /  6.1 °C 29.63in /  1003.3hPa Calm   6.0mph /  9.7km/h 22% 0.00in /  0mm 332.0 W/m2
09:39 86.2 °F /  30.1 °C 42.8 °F /  6 °C 29.63in /  1003.3hPa North 2.0mph /  3.2km/h 3.0mph /  4.8km/h 22% 0.00in /  0mm 508.0 W/m2
09:44 86.0 °F /  30 °C 42.8 °F /  6 °C 29.64in /  1003.6hPa NW 2.0mph /  3.2km/h 3.0mph /  4.8km/h 22% 0.00in /  0mm 392.0 W/m2
09:49 85.8 °F /  29.9 °C 43.7 °F /  6.5 °C 29.63in /  1003.3hPa NNW 2.9mph /  4.7km/h 5.0mph /  8km/h 23% 0.00in /  0mm 408.0 W/m2
09:54 85.6 °F /  29.8 °C 42.4 °F /  5.8 °C 29.64in /  1003.6hPa Calm   4.0mph /  6.4km/h 22% 0.00in /  0mm 677.0 W/m2
09:59 86.0 °F /  30 °C 42.8 °F /  6 °C 29.64in /  1003.6hPa Calm   3.0mph /  4.8km/h 22% 0.00in /  0mm 1072.0 W/m2
10:04 86.4 °F /  30.2 °C 43.0 °F /  6.1 °C 29.63in /  1003.3hPa NE 10.1mph /  16.3km/h 10.1mph /  16.3km/h 22% 0.00in /  0mm 360.0 W/m2
10:09 86.2 °F /  30.1 °C 42.8 °F /  6 °C 29.64in /  1003.6hPa NW 0.9mph /  1.4km/h 4.0mph /  6.4km/h 22% 0.00in /  0mm 306.0 W/m2
10:15 86.0 °F /  30 °C 42.8 °F /  6 °C 29.63in /  1003.3hPa SE 0.9mph /  1.4km/h 3.0mph /  4.8km/h 22% 0.00in /  0mm 322.0 W/m2
10:20 85.6 °F /  29.8 °C 42.4 °F /  5.8 °C 29.63in /  1003.3hPa West 2.0mph /  3.2km/h 7.0mph /  11.3km/h 22% 0.00in /  0mm 329.0 W/m2
10:25 84.7 °F /  29.3 °C 41.7 °F /  5.4 °C 29.63in /  1003.3hPa WSW 2.9mph /  4.7km/h 6.0mph /  9.7km/h 22% 0.00in /  0mm 350.0 W/m2
10:30 84.4 °F /  29.1 °C 42.6 °F /  5.9 °C 29.63in /  1003.3hPa Calm   5.0mph /  8km/h 23% 0.00in /  0mm 348.0 W/m2
10:36 84.4 °F /  29.1 °C 41.4 °F /  5.2 °C 29.63in /  1003.3hPa Calm   5.0mph /  8km/h 22% 0.00in /  0mm 373.0 W/m2
10:41 84.6 °F /  29.2 °C 41.5 °F /  5.3 °C 29.63in /  1003.3hPa NNW 6.0mph /  9.7km/h 9.0mph /  14.5km/h 22% 0.00in /  0mm 478.0 W/m2
10:46 84.6 °F /  29.2 °C 41.5 °F /  5.3 °C 29.63in /  1003.3hPa NNW 2.0mph /  3.2km/h 4.0mph /  6.4km/h 22% 0.00in /  0mm 598.0 W/m2
10:51 84.9 °F /  29.4 °C 41.9 °F /  5.5 °C 29.63in /  1003.3hPa NW 2.0mph /  3.2km/h 7.0mph /  11.3km/h 22% 0.00in /  0mm 468.0 W/m2
10:57 85.5 °F /  29.7 °C 41.0 °F /  5 °C 29.63in /  1003.3hPa NW 0.9mph /  1.4km/h 7.0mph /  11.3km/h 21% 0.00in /  0mm 520.0 W/m2
11:02 85.8 °F /  29.9 °C 41.4 °F /  5.2 °C 29.63in /  1003.3hPa Calm   8.0mph /  12.9km/h 21% 0.00in /  0mm 473.0 W/m2
11:07 85.8 °F /  29.9 °C 42.6 °F /  5.9 °C 29.62in /  1002.9hPa NW 2.9mph /  4.7km/h 4.0mph /  6.4km/h 22% 0.00in /  0mm 538.0 W/m2
11:12 85.8 °F /  29.9 °C 41.4 °F /  5.2 °C 29.62in /  1002.9hPa West 2.9mph /  4.7km/h 6.0mph /  9.7km/h 21% 0.00in /  0mm 471.0 W/m2
11:17 85.6 °F /  29.8 °C 41.2 °F /  5.1 °C 29.62in /  1002.9hPa WSW 2.0mph /  3.2km/h 7.0mph /  11.3km/h 21% 0.00in /  0mm 455.0 W/m2
11:22 85.5 °F /  29.7 °C 42.3 °F /  5.7 °C 29.62in /  1002.9hPa South 0.9mph /  1.4km/h 1.0mph /  1.6km/h 22% 0.00in /  0mm 501.0 W/m2
11:27 85.6 °F /  29.8 °C 43.5 °F /  6.4 °C 29.62in /  1002.9hPa Calm   1.0mph /  1.6km/h 23% 0.00in /  0mm 462.0 W/m2
11:32 86.2 °F /  30.1 °C 41.7 °F /  5.4 °C 29.62in /  1002.9hPa ENE 2.0mph /  3.2km/h 6.0mph /  9.7km/h 21% 0.00in /  0mm 513.0 W/m2
11:37 86.5 °F /  30.3 °C 43.2 °F /  6.2 °C 29.62in /  1002.9hPa SW 0.9mph /  1.4km/h 6.0mph /  9.7km/h 22% 0.00in /  0mm 997.0 W/m2
11:43 87.3 °F /  30.7 °C 42.6 °F /  5.9 °C 29.62in /  1002.9hPa NNE 2.9mph /  4.7km/h 3.0mph /  4.8km/h 21% 0.00in /  0mm 1179.0 W/m2
11:48 88.0 °F /  31.1 °C 41.9 °F /  5.5 °C 29.62in /  1002.9hPa North 2.9mph /  4.7km/h 5.0mph /  8km/h 20% 0.00in /  0mm 461.0 W/m2
11:53 88.0 °F /  31.1 °C 41.9 °F /  5.5 °C 29.61in /  1002.6hPa NNW 4.0mph /  6.4km/h 7.0mph /  11.3km/h 20% 0.00in /  0mm 406.0 W/m2
11:58 87.6 °F /  30.9 °C 41.5 °F /  5.3 °C 29.61in /  1002.6hPa WSW 2.0mph /  3.2km/h 4.0mph /  6.4km/h 20% 0.00in /  0mm 364.0 W/m2
12:03 87.3 °F /  30.7 °C 41.4 °F /  5.2 °C 29.61in /  1002.6hPa WSW 0.9mph /  1.4km/h 6.0mph /  9.7km/h 20% 0.00in /  0mm 352.0 W/m2
12:08 86.7 °F /  30.4 °C 42.1 °F /  5.6 °C 29.61in /  1002.6hPa West 2.0mph /  3.2km/h 3.0mph /  4.8km/h 21% 0.00in /  0mm 334.0 W/m2
12:14 86.2 °F /  30.1 °C 41.7 °F /  5.4 °C 29.61in /  1002.6hPa Calm   5.0mph /  8km/h 21% 0.00in /  0mm 374.0 W/m2
12:19 86.0 °F /  30 °C 41.5 °F /  5.3 °C 29.61in /  1002.6hPa SSW 2.9mph /  4.7km/h 4.0mph /  6.4km/h 21% 0.00in /  0mm 388.0 W/m2
12:24 86.0 °F /  30 °C 41.5 °F /  5.3 °C 29.61in /  1002.6hPa Calm   4.0mph /  6.4km/h 21% 0.00in /  0mm 367.0 W/m2
12:29 86.0 °F /  30 °C 42.8 °F /  6 °C 29.61in /  1002.6hPa Calm   3.0mph /  4.8km/h 22% 0.00in /  0mm 352.0 W/m2
12:34 86.2 °F /  30.1 °C 45.1 °F /  7.3 °C 29.60in /  1002.3hPa SE 2.0mph /  3.2km/h 4.0mph /  6.4km/h 24% 0.00in /  0mm 417.0 W/m2
12:39 86.4 °F /  30.2 °C 44.2 °F /  6.8 °C 29.60in /  1002.3hPa ENE 4.0mph /  6.4km/h 7.0mph /  11.3km/h 23% 0.00in /  0mm 480.0 W/m2
12:44 86.7 °F /  30.4 °C 43.3 °F /  6.3 °C 29.60in /  1002.3hPa East 4.0mph /  6.4km/h 7.0mph /  11.3km/h 22% 0.00in /  0mm 1209.0 W/m2
12:49 87.6 °F /  30.9 °C 44.1 °F /  6.7 °C 29.60in /  1002.3hPa North 2.0mph /  3.2km/h 11.0mph /  17.7km/h 22% 0.00in /  0mm 1167.0 W/m2
12:54 88.2 °F /  31.2 °C 44.6 °F /  7 °C 29.59in /  1001.9hPa Calm   11.0mph /  17.7km/h 22% 0.00in /  0mm 1143.0 W/m2
12:59 89.1 °F /  31.7 °C 45.3 °F /  7.4 °C 29.59in /  1001.9hPa ESE 6.9mph /  11.1km/h 9.0mph /  14.5km/h 22% 0.00in /  0mm 278.0 W/m2
13:05 88.9 °F /  31.6 °C 42.6 °F /  5.9 °C 29.59in /  1001.9hPa East 0.9mph /  1.4km/h 4.0mph /  6.4km/h 20% 0.00in /  0mm 441.0 W/m2
13:10 88.5 °F /  31.4 °C 42.3 °F /  5.7 °C 29.59in /  1001.9hPa ENE 0.9mph /  1.4km/h 9.0mph /  14.5km/h 20% 0.00in /  0mm 1118.0 W/m2
13:15 88.9 °F /  31.6 °C 43.9 °F /  6.6 °C 29.59in /  1001.9hPa ESE 6.0mph /  9.7km/h 8.0mph /  12.9km/h 21% 0.00in /  0mm 1266.0 W/m2
13:20 89.4 °F /  31.9 °C 44.4 °F /  6.9 °C 29.59in /  1001.9hPa ESE 2.9mph /  4.7km/h 6.0mph /  9.7km/h 21% 0.00in /  0mm 819.0 W/m2
13:25 89.4 °F /  31.9 °C 43.0 °F /  6.1 °C 29.59in /  1001.9hPa South 4.9mph /  7.9km/h 10.0mph /  16.1km/h 20% 0.00in /  0mm 345.0 W/m2
13:30 89.1 °F /  31.7 °C 44.1 °F /  6.7 °C 29.58in /  1001.6hPa SE 2.0mph /  3.2km/h 2.0mph /  3.2km/h 21% 0.00in /  0mm 345.0 W/m2
13:36 88.5 °F /  31.4 °C 42.3 °F /  5.7 °C 29.58in /  1001.6hPa ESE 8.1mph /  13km/h 8.1mph /  13km/h 20% 0.00in /  0mm 156.0 W/m2
13:41 87.8 °F /  31 °C 43.0 °F /  6.1 °C 29.59in /  1001.9hPa ESE 4.9mph /  7.9km/h 6.0mph /  9.7km/h 21% 0.00in /  0mm 83.0 W/m2
13:46 87.1 °F /  30.6 °C 41.2 °F /  5.1 °C 29.59in /  1001.9hPa NE 2.9mph /  4.7km/h 4.0mph /  6.4km/h 20% 0.00in /  0mm 65.0 W/m2
13:51 86.4 °F /  30.2 °C 41.9 °F /  5.5 °C 29.59in /  1001.9hPa Calm   6.0mph /  9.7km/h 21% 0.00in /  0mm 65.0 W/m2
13:56 84.7 °F /  29.3 °C 41.7 °F /  5.4 °C 29.60in /  1002.3hPa Calm   10.0mph /  16.1km/h 22% 0.00in /  0mm 77.0 W/m2
13:57 84.6 °F /  29.2 °C 41.5 °F /  5.3 °C 29.60in /  1002.3hPa WSW 2.0mph /  3.2km/h 3.0mph /  4.8km/h 22% 0.00in /  0mm 79.0 W/m2
14:03 82.9 °F /  28.3 °C 43.5 °F /  6.4 °C 29.61in /  1002.6hPa NNW 8.9mph /  14.3km/h 12.0mph /  19.3km/h 25% 0.00in /  0mm 83.0 W/m2
14:08 80.1 °F /  26.7 °C 45.0 °F /  7.2 °C 29.61in /  1002.6hPa NNW 4.9mph /  7.9km/h 15.0mph /  24.1km/h 29% 0.00in /  0mm 95.0 W/m2
14:14 78.4 °F /  25.8 °C 46.2 °F /  7.9 °C 29.60in /  1002.3hPa NNE 4.9mph /  7.9km/h 12.0mph /  19.3km/h 32% 0.00in /  0mm 104.0 W/m2
14:19 77.2 °F /  25.1 °C 46.6 °F /  8.1 °C 29.60in /  1002.3hPa WNW 8.9mph /  14.3km/h 13.0mph /  20.9km/h 34% 0.00in /  0mm 118.0 W/m2
14:24 76.6 °F /  24.8 °C 46.2 °F /  7.9 °C 29.60in /  1002.3hPa North 2.0mph /  3.2km/h 5.0mph /  8km/h 34% 0.00in /  0mm 148.0 W/m2
14:29 76.6 °F /  24.8 °C 46.9 °F /  8.3 °C 29.60in /  1002.3hPa NE 4.0mph /  6.4km/h 12.0mph /  19.3km/h 35% 0.00in /  0mm 197.0 W/m2
14:35 77.0 °F /  25 °C 46.4 °F /  8 °C 29.60in /  1002.3hPa North 4.9mph /  7.9km/h 6.0mph /  9.7km/h 34% 0.00in /  0mm 390.0 W/m2
14:40 77.5 °F /  25.3 °C 45.3 °F /  7.4 °C 29.60in /  1002.3hPa NNE 4.0mph /  6.4km/h 9.0mph /  14.5km/h 32% 0.00in /  0mm 394.0 W/m2
14:45 78.6 °F /  25.9 °C 46.2 °F /  7.9 °C 29.60in /  1002.3hPa NNE 4.9mph /  7.9km/h 6.0mph /  9.7km/h 32% 0.00in /  0mm 527.0 W/m2
14:51 79.9 °F /  26.6 °C 45.7 °F /  7.6 °C 29.60in /  1002.3hPa NNW 0.9mph /  1.4km/h 3.0mph /  4.8km/h 30% 0.00in /  0mm 443.0 W/m2
14:57 81.0 °F /  27.2 °C 43.9 °F /  6.6 °C 29.60in /  1002.3hPa NNW 2.0mph /  3.2km/h 2.0mph /  3.2km/h 27% 0.00in /  0mm 680.0 W/m2
15:02 82.0 °F /  27.8 °C 43.7 °F /  6.5 °C 29.59in /  1001.9hPa Calm   3.0mph /  4.8km/h 26% 0.00in /  0mm 714.0 W/m2
15:07 83.5 °F /  28.6 °C 43.9 °F /  6.6 °C 29.59in /  1001.9hPa West 2.9mph /  4.7km/h 9.0mph /  14.5km/h 25% 0.00in /  0mm 492.0 W/m2
15:12 84.4 °F /  29.1 °C 43.7 °F /  6.5 °C 29.59in /  1001.9hPa ENE 2.9mph /  4.7km/h 5.0mph /  8km/h 24% 0.00in /  0mm 930.0 W/m2
15:23 86.5 °F /  30.3 °C 43.2 °F /  6.2 °C 29.58in /  1001.6hPa NNW 2.0mph /  3.2km/h 5.0mph /  8km/h 22% 0.00in /  0mm 972.0 W/m2
15:28 87.4 °F /  30.8 °C 42.8 °F /  6 °C 29.58in /  1001.6hPa NE 2.0mph /  3.2km/h 5.0mph /  8km/h 21% 0.00in /  0mm 933.0 W/m2
15:33 88.2 °F /  31.2 °C 43.3 °F /  6.3 °C 29.58in /  1001.6hPa NE 6.0mph /  9.7km/h 10.0mph /  16.1km/h 21% 0.00in /  0mm 717.0 W/m2
15:39 88.2 °F /  31.2 °C 40.6 °F /  4.8 °C 29.58in /  1001.6hPa East 2.0mph /  3.2km/h 10.0mph /  16.1km/h 19% 0.00in /  0mm 308.0 W/m2
15:44 88.2 °F /  31.2 °C 40.6 °F /  4.8 °C 29.58in /  1001.6hPa East 2.0mph /  3.2km/h 10.0mph /  16.1km/h 19% 0.00in /  0mm 308.0 W/m2
15:49 86.4 °F /  30.2 °C 40.6 °F /  4.8 °C 29.57in /  1001.2hPa SSE 6.9mph /  11.1km/h 14.0mph /  22.5km/h 20% 0.00in /  0mm 257.0 W/m2
15:54 85.8 °F /  29.9 °C 41.4 °F /  5.2 °C 29.57in /  1001.2hPa Calm   5.0mph /  8km/h 21% 0.00in /  0mm 295.0 W/m2
15:59 85.6 °F /  29.8 °C 41.2 °F /  5.1 °C 29.57in /  1001.2hPa SSE 2.9mph /  4.7km/h 3.0mph /  4.8km/h 21% 0.00in /  0mm 512.0 W/m2
16:04 85.8 °F /  29.9 °C 40.1 °F /  4.5 °C 29.57in /  1001.2hPa East 0.9mph /  1.4km/h 6.0mph /  9.7km/h 20% 0.00in /  0mm 279.0 W/m2
16:09 85.8 °F /  29.9 °C 40.1 °F /  4.5 °C 29.56in /  1000.9hPa Calm   6.0mph /  9.7km/h 20% 0.00in /  0mm 292.0 W/m2
16:14 86.2 °F /  30.1 °C 40.5 °F /  4.7 °C 29.57in /  1001.2hPa East 0.9mph /  1.4km/h 8.0mph /  12.9km/h 20% 0.00in /  0mm 631.0 W/m2
16:19 86.7 °F /  30.4 °C 39.6 °F /  4.2 °C 29.57in /  1001.2hPa East 2.9mph /  4.7km/h 6.0mph /  9.7km/h 19% 0.00in /  0mm 499.0 W/m2
16:24 87.3 °F /  30.7 °C 39.9 °F /  4.4 °C 29.56in /  1000.9hPa Calm   5.0mph /  8km/h 19% 0.00in /  0mm 251.0 W/m2
16:29 87.3 °F /  30.7 °C 39.9 °F /  4.4 °C 29.56in /  1000.9hPa Calm   5.0mph /  8km/h 19% 0.00in /  0mm 221.0 W/m2
16:34 86.9 °F /  30.5 °C 39.7 °F /  4.3 °C 29.57in /  1001.2hPa North 2.0mph /  3.2km/h 4.0mph /  6.4km/h 19% 0.00in /  0mm 169.0 W/m2
16:40 86.5 °F /  30.3 °C 39.4 °F /  4.1 °C 29.57in /  1001.2hPa NE 4.0mph /  6.4km/h 6.0mph /  9.7km/h 19% 0.00in /  0mm 114.0 W/m2
16:45 86.2 °F /  30.1 °C 39.0 °F /  3.9 °C 29.57in /  1001.2hPa NE 2.0mph /  3.2km/h 3.0mph /  4.8km/h 19% 0.00in /  0mm 132.0 W/m2
16:50 85.6 °F /  29.8 °C 39.9 °F /  4.4 °C 29.57in /  1001.2hPa North 2.9mph /  4.7km/h 6.0mph /  9.7km/h 20% 0.00in /  0mm 135.0 W/m2
16:55 85.1 °F /  29.5 °C 43.2 °F /  6.2 °C 29.57in /  1001.2hPa NW 6.0mph /  9.7km/h 11.0mph /  17.7km/h 23% 0.00in /  0mm 97.0 W/m2
17:00 83.8 °F /  28.8 °C 43.2 °F /  6.2 °C 29.57in /  1001.2hPa NE 4.0mph /  6.4km/h 11.0mph /  17.7km/h 24% 0.00in /  0mm 105.0 W/m2
17:05 82.9 °F /  28.3 °C 44.6 °F /  7 °C 29.57in /  1001.2hPa West 4.9mph /  7.9km/h 11.0mph /  17.7km/h 26% 0.00in /  0mm 144.0 W/m2
17:10 82.8 °F /  28.2 °C 44.4 °F /  6.9 °C 29.57in /  1001.2hPa West 6.9mph /  11.1km/h 10.0mph /  16.1km/h 26% 0.00in /  0mm 118.0 W/m2
17:16 82.6 °F /  28.1 °C 44.2 °F /  6.8 °C 29.57in /  1001.2hPa NNW 6.0mph /  9.7km/h 9.0mph /  14.5km/h 26% 0.00in /  0mm 127.0 W/m2
17:21 82.8 °F /  28.2 °C 44.4 °F /  6.9 °C 29.57in /  1001.2hPa NNW 8.1mph /  13km/h 8.1mph /  13km/h 26% 0.00in /  0mm 146.0 W/m2
17:26 82.8 °F /  28.2 °C 44.4 °F /  6.9 °C 29.57in /  1001.2hPa NNE 8.1mph /  13km/h 11.0mph /  17.7km/h 26% 0.00in /  0mm 128.0 W/m2
17:32 82.4 °F /  28 °C 45.1 °F /  7.3 °C 29.57in /  1001.2hPa NW 6.0mph /  9.7km/h 6.0mph /  9.7km/h 27% 0.00in /  0mm 63.0 W/m2
17:38 82.0 °F /  27.8 °C 44.8 °F /  7.1 °C 29.58in /  1001.6hPa NNW 2.0mph /  3.2km/h 3.0mph /  4.8km/h 27% 0.00in /  0mm 42.0 W/m2
17:44 81.7 °F /  27.6 °C 44.4 °F /  6.9 °C 29.58in /  1001.6hPa Calm   3.0mph /  4.8km/h 27% 0.00in /  0mm 26.0 W/m2
17:49 81.3 °F /  27.4 °C 44.1 °F /  6.7 °C 29.59in /  1001.9hPa WNW 2.0mph /  3.2km/h 5.0mph /  8km/h 27% 0.00in /  0mm 25.0 W/m2
17:54 81.0 °F /  27.2 °C 43.9 °F /  6.6 °C 29.60in /  1002.3hPa Calm   2.0mph /  3.2km/h 27% 0.00in /  0mm 19.0 W/m2
17:59 81.0 °F /  27.2 °C 44.8 °F /  7.1 °C 29.62in /  1002.9hPa SW 2.9mph /  4.7km/h 15.0mph /  24.1km/h 28% 0.00in /  0mm 21.0 W/m2
18:04 79.5 °F /  26.4 °C 44.4 °F /  6.9 °C 29.62in /  1002.9hPa SW 4.9mph /  7.9km/h 14.0mph /  22.5km/h 29% 0.00in /  0mm 42.0 W/m2
18:09 78.4 °F /  25.8 °C 45.3 °F /  7.4 °C 29.62in /  1002.9hPa WSW 12.1mph /  19.5km/h 13.0mph /  20.9km/h 31% 0.00in /  0mm 65.0 W/m2
18:14 77.5 °F /  25.3 °C 44.6 °F /  7 °C 29.62in /  1002.9hPa SE 4.9mph /  7.9km/h 10.0mph /  16.1km/h 31% 0.00in /  0mm 72.0 W/m2
18:19 77.4 °F /  25.2 °C 45.1 °F /  7.3 °C 29.62in /  1002.9hPa SSE 4.0mph /  6.4km/h 11.0mph /  17.7km/h 32% 0.00in /  0mm 70.0 W/m2
18:25 76.8 °F /  24.9 °C 44.8 °F /  7.1 °C 29.63in /  1003.3hPa West 4.9mph /  7.9km/h 13.0mph /  20.9km/h 32% 0.00in /  0mm 58.0 W/m2
18:30 76.6 °F /  24.8 °C 44.6 °F /  7 °C 29.62in /  1002.9hPa South 6.0mph /  9.7km/h 15.0mph /  24.1km/h 32% 0.00in /  0mm 49.0 W/m2
18:35 76.5 °F /  24.7 °C 44.4 °F /  6.9 °C 29.63in /  1003.3hPa WSW 4.0mph /  6.4km/h 9.0mph /  14.5km/h 32% 0.00in /  0mm 39.0 W/m2
18:40 76.3 °F /  24.6 °C 44.2 °F /  6.8 °C 29.63in /  1003.3hPa SSW 6.0mph /  9.7km/h 13.0mph /  20.9km/h 32% 0.00in /  0mm 28.0 W/m2
18:45 76.3 °F /  24.6 °C 44.2 °F /  6.8 °C 29.64in /  1003.6hPa WSW 6.9mph /  11.1km/h 10.0mph /  16.1km/h 32% 0.00in /  0mm 25.0 W/m2
18:50 76.1 °F /  24.5 °C 44.1 °F /  6.7 °C 29.64in /  1003.6hPa SSW 10.1mph /  16.3km/h 13.0mph /  20.9km/h 32% 0.00in /  0mm 14.0 W/m2
18:55 75.9 °F /  24.4 °C 44.8 °F /  7.1 °C 29.64in /  1003.6hPa WSW 4.0mph /  6.4km/h 11.0mph /  17.7km/h 33% 0.00in /  0mm 9.0 W/m2
19:00 75.6 °F /  24.2 °C 44.4 °F /  6.9 °C 29.64in /  1003.6hPa SW 4.9mph /  7.9km/h 8.0mph /  12.9km/h 33% 0.00in /  0mm 5.0 W/m2
19:05 75.6 °F /  24.2 °C 44.4 °F /  6.9 °C 29.63in /  1003.3hPa SSE 11.0mph /  17.7km/h 11.0mph /  17.7km/h 33% 0.00in /  0mm 0.0 W/m2
19:11 75.4 °F /  24.1 °C 45.1 °F /  7.3 °C 29.63in /  1003.3hPa South 4.0mph /  6.4km/h 14.0mph /  22.5km/h 34% 0.00in /  0mm 0.0 W/m2
19:17 75.2 °F /  24 °C 45.0 °F /  7.2 °C 29.63in /  1003.3hPa South 2.9mph /  4.7km/h 15.0mph /  24.1km/h 34% 0.00in /  0mm 0.0 W/m2
19:22 75.2 °F /  24 °C 45.0 °F /  7.2 °C 29.63in /  1003.3hPa SE 4.9mph /  7.9km/h 7.0mph /  11.3km/h 34% 0.00in /  0mm 0.0 W/m2
19:27 75.0 °F /  23.9 °C 44.8 °F /  7.1 °C 29.63in /  1003.3hPa SE 2.9mph /  4.7km/h 8.0mph /  12.9km/h 34% 0.00in /  0mm 0.0 W/m2
19:32 75.0 °F /  23.9 °C 44.8 °F /  7.1 °C 29.63in /  1003.3hPa SE 0.9mph /  1.4km/h 8.0mph /  12.9km/h 34% 0.00in /  0mm 0.0 W/m2
19:37 75.0 °F /  23.9 °C 44.8 °F /  7.1 °C 29.64in /  1003.6hPa Calm   6.0mph /  9.7km/h 34% 0.00in /  0mm 0.0 W/m2
19:42 75.0 °F /  23.9 °C 44.8 °F /  7.1 °C 29.63in /  1003.3hPa SE 4.0mph /  6.4km/h 8.0mph /  12.9km/h 34% 0.00in /  0mm 0.0 W/m2
19:47 75.0 °F /  23.9 °C 45.5 °F /  7.5 °C 29.63in /  1003.3hPa SE 4.9mph /  7.9km/h 7.0mph /  11.3km/h 35% 0.00in /  0mm 0.0 W/m2
19:52 74.8 °F /  23.8 °C 44.6 °F /  7 °C 29.63in /  1003.3hPa ESE 10.1mph /  16.3km/h 11.0mph /  17.7km/h 34% 0.00in /  0mm 0.0 W/m2
19:57 74.8 °F /  23.8 °C 43.9 °F /  6.6 °C 29.63in /  1003.3hPa SSE 4.0mph /  6.4km/h 6.0mph /  9.7km/h 33% 0.00in /  0mm 0.0 W/m2
20:03 75.0 °F /  23.9 °C 43.2 °F /  6.2 °C 29.63in /  1003.3hPa SSE 6.0mph /  9.7km/h 11.0mph /  17.7km/h 32% 0.00in /  0mm 0.0 W/m2
20:08 75.4 °F /  24.1 °C 42.6 °F /  5.9 °C 29.63in /  1003.3hPa SE 2.9mph /  4.7km/h 4.0mph /  6.4km/h 31% 0.00in /  0mm 0.0 W/m2
20:13 75.6 °F /  24.2 °C 42.8 °F /  6 °C 29.64in /  1003.6hPa SSE 4.9mph /  7.9km/h 11.0mph /  17.7km/h 31% 0.00in /  0mm 0.0 W/m2
20:18 75.9 °F /  24.4 °C 41.4 °F /  5.2 °C 29.65in /  1003.9hPa SE 2.0mph /  3.2km/h 6.0mph /  9.7km/h 29% 0.00in /  0mm 0.0 W/m2
20:23 76.3 °F /  24.6 °C 41.7 °F /  5.4 °C 29.64in /  1003.6hPa SE 0.9mph /  1.4km/h 9.0mph /  14.5km/h 29% 0.00in /  0mm 0.0 W/m2
20:28 76.3 °F /  24.6 °C 41.7 °F /  5.4 °C 29.64in /  1003.6hPa SSE 0.9mph /  1.4km/h 7.0mph /  11.3km/h 29% 0.00in /  0mm 0.0 W/m2
20:33 76.5 °F /  24.7 °C 41.0 °F /  5 °C 29.64in /  1003.6hPa SSW 0.9mph /  1.4km/h 5.0mph /  8km/h 28% 0.00in /  0mm 0.0 W/m2
20:38 76.6 °F /  24.8 °C 41.2 °F /  5.1 °C 29.65in /  1003.9hPa WSW 2.9mph /  4.7km/h 6.0mph /  9.7km/h 28% 0.00in /  0mm 0.0 W/m2
20:44 76.6 °F /  24.8 °C 42.1 °F /  5.6 °C 29.65in /  1003.9hPa Calm   1.0mph /  1.6km/h 29% 0.00in /  0mm 0.0 W/m2
20:49 76.6 °F /  24.8 °C 42.8 °F /  6 °C 29.65in /  1003.9hPa Calm   4.0mph /  6.4km/h 30% 0.00in /  0mm 0.0 W/m2
20:54 76.5 °F /  24.7 °C 42.8 °F /  6 °C 29.66in /  1004.3hPa Calm   3.0mph /  4.8km/h 30% 0.00in /  0mm 0.0 W/m2
20:59 76.3 °F /  24.6 °C 41.7 °F /  5.4 °C 29.66in /  1004.3hPa Calm   2.0mph /  3.2km/h 29% 0.00in /  0mm 0.0 W/m2
21:09 75.9 °F /  24.4 °C 42.3 °F /  5.7 °C 29.67in /  1004.6hPa South 2.9mph /  4.7km/h 4.0mph /  6.4km/h 30% 0.00in /  0mm 0.0 W/m2
21:14 75.7 °F /  24.3 °C 42.1 °F /  5.6 °C 29.67in /  1004.6hPa Calm   2.0mph /  3.2km/h 30% 0.00in /  0mm 0.0 W/m2
21:20 75.7 °F /  24.3 °C 43.0 °F /  6.1 °C 29.67in /  1004.6hPa ESE 2.0mph /  3.2km/h 4.0mph /  6.4km/h 31% 0.00in /  0mm 0.0 W/m2
21:25 75.6 °F /  24.2 °C 42.8 °F /  6 °C 29.68in /  1005hPa Calm   6.0mph /  9.7km/h 31% 0.00in /  0mm 0.0 W/m2
21:30 75.4 °F /  24.1 °C 43.5 °F /  6.4 °C 29.68in /  1005hPa Calm   3.0mph /  4.8km/h 32% 0.00in /  0mm 0.0 W/m2
21:35 75.0 °F /  23.9 °C 43.9 °F /  6.6 °C 29.68in /  1005hPa NE 0.9mph /  1.4km/h 6.0mph /  9.7km/h 33% 0.00in /  0mm 0.0 W/m2
21:40 74.8 °F /  23.8 °C 43.9 °F /  6.6 °C 29.69in /  1005.3hPa North 2.9mph /  4.7km/h 3.0mph /  4.8km/h 33% 0.00in /  0mm 0.0 W/m2
21:45 74.5 °F /  23.6 °C 44.2 °F /  6.8 °C 29.69in /  1005.3hPa ENE 0.9mph /  1.4km/h 4.0mph /  6.4km/h 34% 0.00in /  0mm 0.0 W/m2
21:50 74.1 °F /  23.4 °C 44.8 °F /  7.1 °C 29.69in /  1005.3hPa Calm   3.0mph /  4.8km/h 35% 0.00in /  0mm 0.0 W/m2
21:55 73.9 °F /  23.3 °C 44.6 °F /  7 °C 29.69in /  1005.3hPa Calm   3.0mph /  4.8km/h 35% 0.00in /  0mm 0.0 W/m2
22:00 73.8 °F /  23.2 °C 44.4 °F /  6.9 °C 29.69in /  1005.3hPa Calm   1.0mph /  1.6km/h 35% 0.00in /  0mm 0.0 W/m2
22:05 73.4 °F /  23 °C 44.8 °F /  7.1 °C 29.70in /  1005.6hPa ENE 0.9mph /  1.4km/h 4.0mph /  6.4km/h 36% 0.00in /  0mm 0.0 W/m2
22:11 73.0 °F /  22.8 °C 45.1 °F /  7.3 °C 29.70in /  1005.6hPa East 0.9mph /  1.4km/h 1.0mph /  1.6km/h 37% 0.00in /  0mm 0.0 W/m2
22:16 72.9 °F /  22.7 °C 45.1 °F /  7.3 °C 29.70in /  1005.6hPa Calm   1.0mph /  1.6km/h 37% 0.00in /  0mm 0.0 W/m2
22:21 72.5 °F /  22.5 °C 45.5 °F /  7.5 °C 29.70in /  1005.6hPa Calm   1.0mph /  1.6km/h 38% 0.00in /  0mm 0.0 W/m2
22:26 72.1 °F /  22.3 °C 45.1 °F /  7.3 °C 29.70in /  1005.6hPa Calm   1.0mph /  1.6km/h 38% 0.00in /  0mm 0.0 W/m2
22:31 71.8 °F /  22.1 °C 45.5 °F /  7.5 °C 29.70in /  1005.6hPa Calm   4.0mph /  6.4km/h 39% 0.00in /  0mm 0.0 W/m2
22:41 71.4 °F /  21.9 °C 45.9 °F /  7.7 °C 29.70in /  1005.6hPa Calm   1.0mph /  1.6km/h 40% 0.00in /  0mm 0.0 W/m2
22:47 71.1 °F /  21.7 °C 46.2 °F /  7.9 °C 29.70in /  1005.6hPa Calm     41% 0.00in /  0mm 0.0 W/m2
22:52 70.9 °F /  21.6 °C 46.0 °F /  7.8 °C 29.71in /  1006hPa Calm     41% 0.00in /  0mm 0.0 W/m2
23:02 70.2 °F /  21.2 °C 46.0 °F /  7.8 °C 29.71in /  1006hPa Calm     42% 0.00in /  0mm 0.0 W/m2
23:07 70.0 °F /  21.1 °C 46.4 °F /  8 °C 29.71in /  1006hPa Calm     43% 0.00in /  0mm 0.0 W/m2
23:12 69.6 °F /  20.9 °C 46.8 °F /  8.2 °C 29.71in /  1006hPa Calm   1.0mph /  1.6km/h 44% 0.00in /  0mm 0.0 W/m2
23:17 69.3 °F /  20.7 °C 46.4 °F /  8 °C 29.71in /  1006hPa Calm     44% 0.00in /  0mm 0.0 W/m2
23:23 69.1 °F /  20.6 °C 46.2 °F /  7.9 °C 29.71in /  1006hPa Calm   1.0mph /  1.6km/h 44% 0.00in /  0mm 0.0 W/m2
23:28 68.7 °F /  20.4 °C 45.9 °F /  7.7 °C 29.70in /  1005.6hPa Calm   1.0mph /  1.6km/h 44% 0.00in /  0mm 0.0 W/m2
23:33 68.5 °F /  20.3 °C 45.7 °F /  7.6 °C 29.70in /  1005.6hPa Calm   1.0mph /  1.6km/h 44% 0.00in /  0mm 0.0 W/m2
23:38 68.4 °F /  20.2 °C 45.7 °F /  7.6 °C 29.70in /  1005.6hPa Calm   1.0mph /  1.6km/h 44% 0.00in /  0mm 0.0 W/m2
23:43 68.4 °F /  20.2 °C 45.7 °F /  7.6 °C 29.70in /  1005.6hPa Calm     44% 0.00in /  0mm 0.0 W/m2
23:48 68.4 °F /  20.2 °C 45.7 °F /  7.6 °C 29.70in /  1005.6hPa Calm     44% 0.00in /  0mm 0.0 W/m2
23:53 68.2 °F /  20.1 °C 46.0 °F /  7.8 °C 29.70in /  1005.6hPa Calm     45% 0.00in /  0mm 0.0 W/m2
23:58 67.8 °F /  19.9 °C 46.2 °F /  7.9 °C 29.69in /  1005.3hPa Calm     46% 0.00in /  0mm 0.0 W/m2
Olympia, Windhoek, Namibia
Compliments of Weather Underground - 3.25 mb